createdAt,value
2023-02-26T00:00:53.659Z,83.92
2023-02-26T00:06:00.488Z,83.11
2023-02-26T00:11:02.350Z,82.38
2023-02-26T00:16:11.041Z,81.92
2023-02-26T00:21:20.391Z,81.59
2023-02-26T00:26:23.953Z,82.32
2023-02-26T00:31:26.097Z,82.89
2023-02-26T00:36:45.775Z,82.64
2023-02-26T00:41:47.491Z,82.26
2023-02-26T00:47:05.780Z,81.56
2023-02-26T00:52:19.242Z,80.86
2023-02-26T00:57:21.074Z,78.66
2023-02-26T01:02:22.847Z,78.47
2023-02-26T01:07:25.392Z,78.09
2023-02-26T01:12:27.214Z,77.93
2023-02-26T01:17:35.771Z,77.97
2023-02-26T01:22:52.086Z,78.25
2023-02-26T01:27:56.818Z,78.16
2023-02-26T01:33:20.260Z,78.18
2023-02-26T01:38:36.886Z,78.31
2023-02-26T01:44:03.293Z,79.41
2023-02-26T01:49:12.151Z,79.86
2023-02-26T01:54:14.819Z,80.18
2023-02-26T01:59:24.164Z,80.14
2023-02-26T02:04:26.827Z,80.11
2023-02-26T02:09:28.642Z,79.98
2023-02-26T02:15:00.747Z,80.35
2023-02-26T02:20:35.800Z,80.47
2023-02-26T02:26:14.558Z,80.85
2023-02-26T02:31:19.168Z,81.60
2023-02-26T02:36:34.377Z,82.11
2023-02-26T02:41:43.126Z,82.73
2023-02-26T02:46:48.738Z,83.14
2023-02-26T02:52:03.483Z,83.33
2023-02-26T02:57:24.252Z,82.91
2023-02-26T03:02:36.473Z,82.09
2023-02-26T03:07:46.698Z,81.41
2023-02-26T03:12:48.335Z,81.09
2023-02-26T03:18:05.177Z,80.55
2023-02-26T03:23:14.363Z,80.42
2023-02-26T03:28:44.916Z,79.23
2023-02-26T03:34:08.833Z,79.33
2023-02-26T03:39:20.254Z,79.20
2023-02-26T03:44:27.441Z,78.41
2023-02-26T03:49:38.888Z,78.54
2023-02-26T03:54:46.237Z,78.86
2023-02-26T03:59:47.812Z,78.97
2023-02-26T04:04:56.227Z,78.57
2023-02-26T04:09:57.775Z,78.47
2023-02-26T04:14:59.650Z,78.96
2023-02-26T04:20:01.159Z,78.52
2023-02-26T04:25:02.666Z,78.96
2023-02-26T04:30:04.460Z,78.55
2023-02-26T04:35:06.027Z,78.13
2023-02-26T04:40:07.950Z,77.77
2023-02-26T04:45:09.820Z,77.73
2023-02-26T04:50:11.895Z,77.63
2023-02-26T04:55:13.429Z,77.79
2023-02-26T05:00:15.931Z,78.53
2023-02-26T05:05:17.761Z,77.83
2023-02-26T05:10:19.748Z,77.57
2023-02-26T05:15:21.235Z,77.81
2023-02-26T05:20:22.762Z,77.30
2023-02-26T05:25:24.420Z,77.82
2023-02-26T05:30:25.941Z,77.49
2023-02-26T05:35:27.508Z,78.24
2023-02-26T05:40:29.009Z,78.40
2023-02-26T05:45:30.539Z,78.75
2023-02-26T05:50:32.020Z,78.95
2023-02-26T05:55:33.503Z,78.46
2023-02-26T06:00:35.065Z,78.27
2023-02-26T06:05:37.184Z,78.82
2023-02-26T06:10:38.761Z,79.45
2023-02-26T06:15:40.268Z,79.92
2023-02-26T06:20:41.800Z,80.31
2023-02-26T06:25:43.348Z,80.42
2023-02-26T06:30:45.163Z,81.37
2023-02-26T06:35:47.076Z,82.12
2023-02-26T06:40:48.602Z,82.97
2023-02-26T06:45:50.203Z,83.13
2023-02-26T06:50:52.412Z,83.36
2023-02-26T06:55:53.933Z,83.71
2023-02-26T07:00:55.546Z,83.85
2023-02-26T07:06:03.516Z,84.45
2023-02-26T07:11:11.769Z,85.86
2023-02-26T07:16:13.289Z,86.48
2023-02-26T07:21:14.940Z,86.13
2023-02-26T07:26:17.579Z,85.97
2023-02-26T07:31:19.176Z,85.00
2023-02-26T07:36:20.800Z,85.11
2023-02-26T07:41:22.508Z,84.25
2023-02-26T07:46:24.422Z,84.27
2023-02-26T07:51:26.574Z,83.91
2023-02-26T07:56:28.481Z,83.00
2023-02-26T08:01:30.152Z,81.47
2023-02-26T08:06:31.783Z,81.37
2023-02-26T08:11:36.545Z,81.34
2023-02-26T08:16:38.485Z,81.33
2023-02-26T08:21:40.446Z,80.27
2023-02-26T08:26:42.342Z,79.49
2023-02-26T08:31:44.252Z,77.72
2023-02-26T08:36:45.867Z,77.50
2023-02-26T08:41:47.352Z,78.38
2023-02-26T08:46:48.893Z,78.54
2023-02-26T08:51:50.427Z,77.51
2023-02-26T08:56:53.423Z,77.95
2023-02-26T09:01:54.970Z,76.74
2023-02-26T09:06:56.538Z,76.78
2023-02-26T09:11:58.987Z,76.44
2023-02-26T09:17:00.491Z,76.70
2023-02-26T09:22:02.037Z,76.08
2023-02-26T09:27:03.811Z,75.84
2023-02-26T09:32:08.489Z,75.75
2023-02-26T09:37:10.401Z,75.71
2023-02-26T09:42:49.342Z,74.54
2023-02-26T09:47:54.155Z,75.25
2023-02-26T09:53:03.132Z,73.51
2023-02-26T09:58:11.412Z,74.03
2023-02-26T10:03:29.893Z,73.07
2023-02-26T10:08:39.916Z,71.96
2023-02-26T10:13:57.696Z,72.06
2023-02-26T10:19:14.543Z,71.04
2023-02-26T10:24:23.178Z,70.94
2023-02-26T10:29:36.584Z,71.04
2023-02-26T10:34:45.187Z,70.54
2023-02-26T10:40:09.182Z,70.87
2023-02-26T10:45:27.801Z,70.53
2023-02-26T10:50:29.611Z,72.10
2023-02-26T10:55:50.115Z,69.86
2023-02-26T11:00:54.357Z,70.97
2023-02-26T11:05:56.846Z,71.07
2023-02-26T11:11:01.419Z,70.78
2023-02-26T11:16:06.429Z,70.17
2023-02-26T11:21:16.769Z,70.05
2023-02-26T11:26:25.624Z,70.71
2023-02-26T11:31:27.981Z,71.53
2023-02-26T11:36:31.842Z,71.21
2023-02-26T11:41:38.136Z,71.95
2023-02-26T11:46:46.430Z,72.83
2023-02-26T11:52:01.194Z,72.60
2023-02-26T11:57:06.445Z,69.75
2023-02-26T12:02:13.423Z,69.43
2023-02-26T12:07:16.808Z,68.91
2023-02-26T12:12:52.514Z,66.57
2023-02-26T12:18:09.225Z,67.19
2023-02-26T12:23:28.994Z,66.08
2023-02-26T12:29:08.316Z,68.92
2023-02-26T12:34:15.674Z,67.81
2023-02-26T12:39:50.716Z,67.62
2023-02-26T12:45:13.861Z,68.32
2023-02-26T12:50:30.448Z,67.00
2023-02-26T12:56:01.370Z,65.10
2023-02-26T13:01:28.334Z,63.35
2023-02-26T13:06:50.175Z,63.24
2023-02-26T13:12:28.463Z,66.50
2023-02-26T13:18:05.196Z,68.11
2023-02-26T13:23:13.995Z,68.85
2023-02-26T13:28:34.578Z,68.33
2023-02-26T13:33:37.606Z,67.94
2023-02-26T13:38:42.053Z,66.40
2023-02-26T13:43:49.482Z,65.51
2023-02-26T13:49:13.877Z,67.07
2023-02-26T13:54:21.669Z,65.72
2023-02-26T13:59:30.409Z,64.88
2023-02-26T14:04:49.103Z,65.64
2023-02-26T14:10:26.293Z,65.34
2023-02-26T14:15:39.449Z,65.42
2023-02-26T14:20:40.965Z,65.02
2023-02-26T14:25:53.236Z,65.19
2023-02-26T14:31:03.664Z,63.92
2023-02-26T14:36:10.162Z,64.64
2023-02-26T14:41:28.550Z,65.28
2023-02-26T14:46:30.883Z,65.23
2023-02-26T14:52:00.200Z,64.23
2023-02-26T14:57:07.794Z,66.00
2023-02-26T15:02:32.138Z,66.06
2023-02-26T15:07:58.446Z,65.05
2023-02-26T15:13:05.628Z,65.14
2023-02-26T15:18:39.497Z,66.07
2023-02-26T15:23:42.684Z,65.97
2023-02-26T15:28:44.815Z,67.95
2023-02-26T15:33:50.003Z,67.79
2023-02-26T15:38:57.473Z,68.46
2023-02-26T15:44:03.130Z,68.80
2023-02-26T15:49:13.672Z,67.95
2023-02-26T15:54:19.563Z,68.82
2023-02-26T15:59:25.471Z,70.78
2023-02-26T16:04:27.074Z,71.05
2023-02-26T16:09:35.992Z,71.55
2023-02-26T16:14:45.413Z,73.36
2023-02-26T16:19:50.441Z,74.52
2023-02-26T16:25:25.372Z,74.98
2023-02-26T16:30:33.637Z,74.93
2023-02-26T16:35:42.070Z,75.06
2023-02-26T16:40:44.942Z,76.07
2023-02-26T16:45:51.011Z,76.19
2023-02-26T16:51:02.316Z,77.12
2023-02-26T16:56:05.137Z,77.34
2023-02-26T17:01:14.872Z,78.17
2023-02-26T17:06:19.596Z,78.33
2023-02-26T17:11:30.427Z,78.61
2023-02-26T17:16:31.927Z,79.86
2023-02-26T17:21:36.201Z,80.75
2023-02-26T17:26:37.731Z,81.83
2023-02-26T17:31:43.555Z,82.56
2023-02-26T17:36:46.303Z,83.78
2023-02-26T17:41:47.857Z,84.54
2023-02-26T17:46:49.503Z,85.71
2023-02-26T17:51:53.955Z,86.50
2023-02-26T17:56:55.526Z,87.17
2023-02-26T18:01:58.016Z,87.52
2023-02-26T18:06:59.479Z,87.88
2023-02-26T18:12:00.948Z,87.95
2023-02-26T18:17:02.533Z,88.80
2023-02-26T18:22:04.326Z,89.33
2023-02-26T18:27:08.537Z,89.79
2023-02-26T18:32:18.569Z,89.73
2023-02-26T18:37:22.767Z,90.32
2023-02-26T18:42:27.147Z,90.62
2023-02-26T18:47:29.928Z,91.42
2023-02-26T18:52:31.809Z,91.48
2023-02-26T18:57:34.232Z,91.92
2023-02-26T19:02:35.984Z,92.28
2023-02-26T19:07:37.984Z,92.68
2023-02-26T19:12:39.613Z,93.08
2023-02-26T19:17:42.314Z,93.32
2023-02-26T19:22:45.636Z,93.37
2023-02-26T19:27:47.212Z,93.65
2023-02-26T19:32:49.795Z,93.53
2023-02-26T19:37:51.368Z,94.04
2023-02-26T19:42:52.879Z,93.82
2023-02-26T19:47:54.462Z,93.67
2023-02-26T19:52:56.196Z,93.20
2023-02-26T19:57:57.671Z,93.62
2023-02-26T20:02:59.247Z,93.49
2023-02-26T20:08:00.824Z,93.36
2023-02-26T20:13:02.534Z,93.81
2023-02-26T20:18:04.077Z,94.07
2023-02-26T20:23:05.558Z,94.50
2023-02-26T20:28:07.195Z,94.36
2023-02-26T20:33:08.839Z,94.53
2023-02-26T20:38:10.937Z,94.53
2023-02-26T20:43:12.467Z,94.51
2023-02-26T20:48:13.970Z,94.63
2023-02-26T20:53:15.623Z,95.18
2023-02-26T20:58:17.351Z,95.69
2023-02-26T21:03:18.816Z,95.87
2023-02-26T21:08:20.458Z,96.58
2023-02-26T21:13:22.048Z,96.70
2023-02-26T21:18:23.604Z,96.80
2023-02-26T21:23:25.155Z,97.14
2023-02-26T21:28:26.816Z,97.51
2023-02-26T21:33:28.341Z,97.96
2023-02-26T21:38:29.935Z,98.50
2023-02-26T21:43:31.431Z,98.13
2023-02-26T21:48:33.034Z,98.51
2023-02-26T21:53:34.544Z,97.53
2023-02-26T21:58:36.025Z,97.71
2023-02-26T22:03:38.211Z,96.57
2023-02-26T22:08:39.669Z,96.14
2023-02-26T22:13:41.198Z,96.06
2023-02-26T22:18:42.910Z,95.99
2023-02-26T22:23:44.559Z,95.91
2023-02-26T22:28:46.025Z,95.65
2023-02-26T22:33:47.570Z,94.79
2023-02-26T22:38:49.245Z,94.75
2023-02-26T22:43:53.585Z,95.11
2023-02-26T22:48:55.979Z,94.89
2023-02-26T22:53:57.616Z,95.42
2023-02-26T22:58:59.151Z,95.81
2023-02-26T23:04:00.797Z,95.79
2023-02-26T23:09:03.527Z,96.08
2023-02-26T23:14:05.044Z,96.40
2023-02-26T23:19:06.616Z,96.44
2023-02-26T23:24:08.170Z,96.88
2023-02-26T23:29:09.837Z,97.12
2023-02-26T23:34:11.363Z,97.50
2023-02-26T23:39:15.241Z,97.34
2023-02-26T23:44:16.758Z,97.73
2023-02-26T23:49:18.414Z,97.31
2023-02-26T23:54:19.948Z,96.92
2023-02-26T23:59:21.506Z,96.33
